1868 NOT_NAMED (1868071S15066)


IBTrACS version v04r00. Visit IBTrACS website for data access.
Please direct all questions to the IBTrACS Q and A forum

Storm track - Intensity - Wind Radii - Intensity Data - Source Data - All data

Summary Information

Storm ID 1868071S15066
Start Mar 11 06Z
End Mar 18 06Z
ATCF IDs
Track status Best track data.
Spur track This storm is a spur track associated with the main storm: 1868071S15066

Storm track plot

Map of storm track

Intensity plots

No Intensity information for this storm


Radial wind information

No radial wind information for this storm


Position and Intensity Table

BASIN ISO_TIME_________ NATURE LAT LON
degrees north degrees east
SI 1868-03-11 06:00:00 NR -14.80 65.90
SI 09:00:00 NR -14.84 65.81
SI 12:00:00 NR -14.89 65.72
SI 15:00:00 NR -14.94 65.62
SI 18:00:00 NR -14.99 65.50
SI 21:00:00 NR -15.05 65.37
SI 1868-03-12 00:00:00 NR -15.12 65.21
SI 03:00:00 NR -15.21 65.02
SI 06:00:00 NR -15.30 64.80
SI 09:00:00 NR -15.41 64.54
SI 12:00:00 NR -15.53 64.25
SI 15:00:00 NR -15.66 63.94
SI 18:00:00 NR -15.80 63.61
SI 21:00:00 NR -15.94 63.26
SI 1868-03-13 00:00:00 NR -16.09 62.90
SI 03:00:00 NR -16.25 62.55
SI 06:00:00 NR -16.40 62.20
SI 09:00:00 NR -16.53 61.88
SI 12:00:00 NR -16.67 61.56
SI 15:00:00 NR -16.80 61.25
SI 18:00:00 NR -16.95 60.93
SI 21:00:00 NR -17.10 60.62
SI 1868-03-14 00:00:00 NR -17.25 60.31
SI 03:00:00 NR -17.42 60.01
SI 06:00:00 NR -17.60 59.70
SI 09:00:00 NR -17.77 59.37
SI 12:00:00 NR -17.96 59.04
SI 15:00:00 NR -18.15 58.71
SI 18:00:00 NR -18.37 58.39
SI 21:00:00 NR -18.59 58.09
SI 1868-03-15 00:00:00 NR -18.84 57.80
SI 03:00:00 NR -19.11 57.54
SI 06:00:00 NR -19.40 57.30
SI 09:00:00 NR -19.70 57.07
SI 12:00:00 NR -20.02 56.87
SI 15:00:00 NR -20.37 56.69
SI 18:00:00 NR -20.73 56.54
SI 21:00:00 NR -21.12 56.42
SI 1868-03-16 00:00:00 NR -21.53 56.32
SI 03:00:00 NR -21.96 56.24
SI 06:00:00 NR -22.40 56.20
SI 09:00:00 NR -22.91 56.18
SI 12:00:00 NR -23.44 56.20
SI 15:00:00 NR -23.99 56.24
SI 18:00:00 NR -24.53 56.30
SI 21:00:00 NR -25.06 56.37
SI 1868-03-17 00:00:00 NR -25.56 56.45
SI 03:00:00 NR -26.01 56.53
SI 06:00:00 NR -26.40 56.60
SI 09:00:00 NR -26.72 56.66
SI 12:00:00 NR -26.97 56.70
SI 15:00:00 NR -27.16 56.74
SI 18:00:00 NR -27.30 56.76
SI 21:00:00 NR -27.41 56.78
SI 1868-03-18 00:00:00 NR -27.49 56.79
SI 03:00:00 NR -27.55 56.79
SI 06:00:00 NR -27.60 56.80

Source Information

Agency Information
USA
TOKYO
CMA
HKO
NEWDELHI
REUNION WMO-Best-Tracks.txt:Line=747:xxxx868110
BOM
NADI
WELLINGTON
DS824
TD9636
TD9635
NEUMANN
MLC

All available IBTrACS Data

SEASON BASIN SUBBASIN ISO_TIME_________ NATURE LAT LON WMO AGENCY DIST2LAND LANDFALL IFLAG USA SSHS REUNION LAT REUNION LON REUNION TYPE REUNION TNUM STORM SPEED STORM DIR
Year degrees north degrees east km km 1 degrees north degrees east 1 kts degrees
1868 SI MM 1868-03-11 06:00:00 NR -14.80 65.90 reunion 1052 1043 _____O________ -1 -14.80 65.90 99 9.90 2 243
1868 SI MM 09:00:00 NR -14.84 65.81 1043 1028 _____P________ -1 -14.84 65.81 99 2 243
1868 SI MM 12:00:00 NR -14.89 65.72 1028 1019 _____P________ -1 -14.89 65.72 99 2 244
1868 SI MM 15:00:00 NR -14.94 65.62 1019 1004 _____P________ -1 -14.94 65.62 99 2 244
1868 SI MM 18:00:00 NR -14.99 65.50 1004 995 _____P________ -1 -14.99 65.50 99 3 245
1868 SI MM 21:00:00 NR -15.05 65.37 989 971 _____P________ -1 -15.05 65.37 99 3 245
1868 SI MM 1868-03-12 00:00:00 NR -15.12 65.21 971 947 _____P________ -1 -15.12 65.21 99 4 245
1868 SI MM 03:00:00 NR -15.21 65.02 947 924 _____P________ -1 -15.21 65.02 99 4 246
1868 SI MM 06:00:00 NR -15.30 64.80 reunion 924 900 _____O________ -1 -15.30 64.80 99 9.90 5 246
1868 SI MM 09:00:00 NR -15.41 64.54 891 867 _____P________ -1 -15.41 64.54 99 6 247
1868 SI MM 12:00:00 NR -15.53 64.25 867 828 _____P________ -1 -15.53 64.25 99 6 247
1868 SI MM 15:00:00 NR -15.66 63.94 820 787 _____P________ -1 -15.66 63.94 99 7 247
1868 SI MM 18:00:00 NR -15.80 63.61 787 755 _____P________ -1 -15.80 63.61 99 7 247
1868 SI MM 21:00:00 NR -15.94 63.26 755 708 _____P________ -1 -15.94 63.26 99 7 246
1868 SI MM 1868-03-13 00:00:00 NR -16.09 62.90 708 677 _____P________ -1 -16.09 62.90 99 7 246
1868 SI MM 03:00:00 NR -16.25 62.55 668 630 _____P________ -1 -16.25 62.55 99 7 246
1868 SI MM 06:00:00 NR -16.40 62.20 reunion 630 598 _____O________ -1 -16.40 62.20 99 9.90 7 246
1868 SI MM 09:00:00 NR -16.53 61.88 598 560 _____P________ -1 -16.53 61.88 99 7 246
1868 SI MM 12:00:00 NR -16.67 61.56 560 529 _____P________ -1 -16.67 61.56 99 7 246
1868 SI MM 15:00:00 NR -16.80 61.25 522 499 _____P________ -1 -16.80 61.25 99 7 245
1868 SI MM 18:00:00 NR -16.95 60.93 491 453 _____P________ -1 -16.95 60.93 99 7 244
1868 SI MM 21:00:00 NR -17.10 60.62 453 424 _____P________ -1 -17.10 60.62 99 7 243
1868 SI MM 1868-03-14 00:00:00 NR -17.25 60.31 416 387 _____P________ -1 -17.25 60.31 99 7 241
1868 SI MM 03:00:00 NR -17.42 60.01 387 350 _____P________ -1 -17.42 60.01 99 7 239
1868 SI MM 06:00:00 NR -17.60 59.70 reunion 350 313 _____O________ -1 -17.60 59.70 99 9.90 7 240
1868 SI MM 09:00:00 NR -17.77 59.37 313 286 _____P________ -1 -17.77 59.37 99 7 240
1868 SI MM 12:00:00 NR -17.96 59.04 271 247 _____P________ -1 -17.96 59.04 99 7 239
1868 SI MM 15:00:00 NR -18.15 58.71 237 203 _____P________ -1 -18.15 58.71 99 7 236
1868 SI MM 18:00:00 NR -18.37 58.39 203 172 _____P________ -1 -18.37 58.39 99 7 233
1868 SI MM 21:00:00 NR -18.59 58.09 172 145 _____P________ -1 -18.59 58.09 99 7 230
1868 SI MM 1868-03-15 00:00:00 NR -18.84 57.80 145 111 _____P________ -1 -18.84 57.80 99 7 225
1868 SI MM 03:00:00 NR -19.11 57.54 111 81 _____P________ -1 -19.11 57.54 99 7 220
1868 SI MM 06:00:00 NR -19.40 57.30 reunion 81 61 _____O________ -1 -19.40 57.30 99 9.90 7 216
1868 SI MM 09:00:00 NR -19.70 57.07 61 56 _____P________ -1 -19.70 57.07 99 7 213
1868 SI MM 12:00:00 NR -20.02 56.87 62 56 _____P________ -1 -20.02 56.87 99 8 208
1868 SI MM 15:00:00 NR -20.37 56.69 63 63 _____P________ -1 -20.37 56.69 99 8 204
1868 SI MM 18:00:00 NR -20.73 56.54 85 62 _____P________ -1 -20.73 56.54 99 8 199
1868 SI MM 21:00:00 NR -21.12 56.42 62 52 _____P________ -1 -21.12 56.42 99 8 195
1868 SI MM 1868-03-16 00:00:00 NR -21.53 56.32 56 56 _____P________ -1 -21.53 56.32 99 9 191
1868 SI MM 03:00:00 NR -21.96 56.24 88 88 _____P________ -1 -21.96 56.24 99 9 187
1868 SI MM 06:00:00 NR -22.40 56.20 reunion 127 127 _____O________ -1 -22.40 56.20 99 9.90 10 183
1868 SI MM 09:00:00 NR -22.91 56.18 178 178 _____P________ -1 -22.91 56.18 99 10 181
1868 SI MM 12:00:00 NR -23.44 56.20 231 231 _____P________ -1 -23.44 56.20 99 11 177
1868 SI MM 15:00:00 NR -23.99 56.24 297 297 _____P________ -1 -23.99 56.24 99 11 175
1868 SI MM 18:00:00 NR -24.53 56.30 353 353 _____P________ -1 -24.53 56.30 99 11 174
1868 SI MM 21:00:00 NR -25.06 56.37 421 421 _____P________ -1 -25.06 56.37 99 10 173
1868 SI MM 1868-03-17 00:00:00 NR -25.56 56.45 476 476 _____P________ -1 -25.56 56.45 99 10 171
1868 SI MM 03:00:00 NR -26.01 56.53 522 522 _____P________ -1 -26.01 56.53 99 9 171
1868 SI MM 06:00:00 NR -26.40 56.60 reunion 567 567 _____O________ -1 -26.40 56.60 99 9.90 7 170
1868 SI MM 09:00:00 NR -26.72 56.66 602 602 _____P________ -1 -26.72 56.66 99 6 171
1868 SI MM 12:00:00 NR -26.97 56.70 635 635 _____P________ -1 -26.97 56.70 99 5 172
1868 SI MM 15:00:00 NR -27.16 56.74 657 657 _____P________ -1 -27.16 56.74 99 3 171
1868 SI MM 18:00:00 NR -27.30 56.76 670 670 _____P________ -1 -27.30 56.76 99 3 170
1868 SI MM 21:00:00 NR -27.41 56.78 681 681 _____P________ -1 -27.41 56.78 99 2 0
1868 SI MM 1868-03-18 00:00:00 NR -27.49 56.79 692 692 _____P________ -1 -27.49 56.79 99 1 0
1868 SI MM 03:00:00 NR -27.55 56.79 692 692 _____P________ -1 -27.55 56.79 99 1 168
1868 SI MM 06:00:00 NR -27.60 56.80 reunion 703 _____O________ -1 -27.60 56.80 99 9.90 1 154